Time;durP1;ratioP1;P1;durP2;ratioP2;P2;SDS_P1;SDS_P2;PMS_P1;PMS_P2;Temp;Humidity;BMP_temperature;BMP_pressure;BME280_temperature;BME280_humidity;BME280_pressure;Samples;Min_cycle;Max_cycle;Signal;HPM_P1;HPM_P2
2021/08/03 00:00:56;;;;;;;6.43;2.50;;;;;;;25.21;50.50;101132.13;5110634;28;20703;-66
2021/08/03 00:04:05;;;;;;;7.73;2.30;;;;;;;25.11;50.47;101139.38;5110540;28;20192;-66
2021/08/03 00:06:31;;;;;;;3.57;2.20;;;;;;;24.55;50.75;101075.56;5108592;28;20192;-66
2021/08/03 00:08:59;;;;;;;4.53;2.20;;;;;;;25.02;50.77;101142.50;5110143;28;20166;-67
2021/08/03 00:11:26;;;;;;;4.20;2.40;;;;;;;24.94;50.90;101139.44;5092490;28;20173;-66
2021/08/03 00:13:52;;;;;;;3.87;2.20;;;;;;;24.93;51.03;101142.78;5110179;28;20202;-66
2021/08/03 00:16:19;;;;;;;4.63;2.00;;;;;;;24.94;50.99;101147.94;5110014;28;20158;-66
2021/08/03 00:18:45;;;;;;;4.73;2.00;;;;;;;24.89;51.01;101137.38;5110376;28;20235;-66
2021/08/03 00:21:11;;;;;;;6.53;2.20;;;;;;;24.89;50.99;101143.06;5110505;28;20214;-66
2021/08/03 00:23:41;;;;;;;7.70;2.20;;;;;;;24.92;51.17;101153.34;5090511;28;20175;-66
2021/08/03 00:26:10;;;;;;;5.03;2.40;;;;;;;24.89;51.13;101153.63;5092107;28;20243;-66
2021/08/03 00:28:36;;;;;;;5.27;2.00;;;;;;;24.89;51.16;101154.41;5110551;28;20213;-66
2021/08/03 00:31:02;;;;;;;5.67;2.20;;;;;;;24.83;51.25;101153.63;5109924;28;20207;-66
2021/08/03 00:33:27;;;;;;;4.50;2.10;;;;;;;24.73;51.59;101165.75;5110940;28;20253;-66
2021/08/03 00:35:53;;;;;;;4.57;2.13;;;;;;;24.74;51.58;101161.63;5108662;28;20265;-66
2021/08/03 00:38:19;;;;;;;3.23;2.30;;;;;;;24.77;51.35;101166.28;5110831;28;20171;-66
2021/08/03 00:40:54;;;;;;;3.77;1.80;;;;;;;24.74;51.58;101165.25;5091712;28;20188;-66
2021/08/03 00:43:19;;;;;;;4.50;2.00;;;;;;;24.30;51.15;101085.16;5110509;28;20221;-66
2021/08/03 00:45:45;;;;;;;3.47;1.87;;;;;;;24.83;51.16;101173.44;5108914;28;20189;-66
2021/08/03 00:48:10;;;;;;;3.33;1.67;;;;;;;24.88;51.16;101163.41;5110534;28;20194;-66
2021/08/03 00:50:37;;;;;;;5.67;2.10;;;;;;;24.36;51.10;101100.09;5109812;28;20261;-67
2021/08/03 00:53:02;;;;;;;6.03;1.97;;;;;;;24.89;51.00;101173.47;5109630;28;20229;-66
2021/08/03 00:55:28;;;;;;;3.20;2.30;;;;;;;24.91;50.90;101180.16;5109918;28;20201;-66
2021/08/03 00:57:54;;;;;;;4.90;2.23;;;;;;;24.53;50.91;101123.50;5109226;28;20206;-66
2021/08/03 01:00:20;;;;;;;3.90;1.90;;;;;;;24.93;50.86;101186.06;5110431;28;20175;-66
2021/08/03 01:02:45;;;;;;;4.73;2.20;;;;;;;24.91;50.99;101179.38;5109834;28;20183;-66
2021/08/03 01:05:11;;;;;;;3.80;2.07;;;;;;;24.87;50.90;101173.97;5109665;28;20853;-66
2021/08/03 01:07:47;;;;;;;3.73;1.97;;;;;;;24.70;50.95;101147.72;5110461;28;20222;-66
2021/08/03 01:10:15;;;;;;;3.40;2.00;;;;;;;24.85;50.71;101167.28;5114508;28;20173;-66
2021/08/03 01:13:18;;;;;;;3.93;2.10;;;;;;;24.83;50.75;101175.53;5113455;28;20189;-66
2021/08/03 01:16:11;;;;;;;3.70;1.93;;;;;;;24.85;50.74;101165.22;5112557;28;20261;-66
2021/08/03 01:18:53;;;;;;;4.53;1.97;;;;;;;24.87;50.60;101165.47;5124946;27;20158;-66
2021/08/03 01:21:45;;;;;;;3.60;2.00;;;;;;;24.85;50.89;101153.88;5121507;27;20192;-67
2021/08/03 01:24:13;;;;;;;3.40;1.93;;;;;;;24.97;50.77;101163.16;5114365;28;20165;-66
2021/08/03 01:27:09;;;;;;;4.30;1.97;;;;;;;24.89;50.44;101151.56;5112396;28;20639;-66
2021/08/03 01:29:35;;;;;;;5.13;2.30;;;;;;;24.68;50.69;101121.19;5081041;28;20637;-66
2021/08/03 01:32:09;;;;;;;5.70;2.07;;;;;;;24.93;50.51;101163.38;5113936;28;20284;-67
2021/08/03 01:34:44;;;;;;;4.23;2.30;;;;;;;24.63;50.94;101117.09;5113399;28;20795;-66
2021/08/03 01:37:15;;;;;;;4.23;2.10;;;;;;;24.66;50.92;101124.53;5094251;28;20178;-66
2021/08/03 01:39:45;;;;;;;4.67;2.20;;;;;;;24.95;51.15;101163.66;5112939;28;20182;-66
2021/08/03 01:42:13;;;;;;;3.13;1.50;;;;;;;24.61;50.53;101119.66;5113940;28;20229;-66
2021/08/03 01:44:41;;;;;;;6.33;2.10;;;;;;;24.87;50.59;101167.53;5112956;28;20176;-66
2021/08/03 01:47:08;;;;;;;5.37;2.00;;;;;;;24.86;50.73;101163.94;5111356;28;20194;-66
2021/08/03 01:49:36;;;;;;;3.80;2.10;;;;;;;24.90;51.03;101161.59;5113803;28;20179;-66
2021/08/03 01:52:05;;;;;;;5.80;1.77;;;;;;;24.91;51.13;101159.53;5112779;28;20178;-66
2021/08/03 01:54:31;;;;;;;6.57;1.97;;;;;;;24.89;50.85;101157.22;5113727;28;20257;-66
2021/08/03 01:56:58;;;;;;;4.20;1.90;;;;;;;24.85;51.46;101165.22;5111621;28;20666;-66
2021/08/03 01:59:24;;;;;;;3.70;2.00;;;;;;;24.79;50.92;101169.34;5113319;28;20675;-66
2021/08/03 02:01:52;;;;;;;6.57;1.87;;;;;;;24.76;50.75;101171.16;5112800;28;20174;-66
2021/08/03 02:04:19;;;;;;;4.57;1.80;;;;;;;24.74;51.05;101172.97;5113394;28;20171;-66
2021/08/03 02:06:47;;;;;;;7.47;2.23;;;;;;;24.75;51.19;101180.16;5111372;28;20671;-66
2021/08/03 02:09:14;;;;;;;4.80;2.20;;;;;;;24.71;50.92;101171.19;5113335;28;20200;-66
2021/08/03 02:11:40;;;;;;;3.87;2.07;;;;;;;24.66;50.93;101169.88;5112330;28;20287;-67
2021/08/03 02:14:06;;;;;;;3.47;2.00;;;;;;;24.65;50.94;101171.16;5112809;28;20261;-66
2021/08/03 02:16:33;;;;;;;4.20;1.83;;;;;;;24.65;51.08;101173.22;5111811;28;20170;-66
2021/08/03 02:19:00;;;;;;;3.60;1.87;;;;;;;24.60;51.08;101174.00;5111636;28;20664;-66
2021/08/03 02:21:26;;;;;;;4.07;2.30;;;;;;;24.25;52.03;101112.19;5113255;28;20189;-66
2021/08/03 02:23:52;;;;;;;7.13;2.33;;;;;;;24.47;51.89;101160.31;5112250;28;20692;-67
2021/08/03 02:26:18;;;;;;;4.90;2.10;;;;;;;24.49;52.41;101168.31;5112090;28;20671;-67
2021/08/03 02:28:44;;;;;;;2.60;1.90;;;;;;;24.39;51.86;101173.47;5111861;28;20221;-66
2021/08/03 02:31:37;;;;;;;4.43;2.00;;;;;;;24.41;52.53;101178.63;5094060;28;20239;-66
2021/08/03 02:34:25;;;;;;;5.20;2.00;;;;;;;23.95;52.27;101111.13;5112162;28;20720;-66
2021/08/03 02:36:55;;;;;;;6.20;1.93;;;;;;;24.38;52.61;101188.94;5110838;28;20632;-67
2021/08/03 02:39:23;;;;;;;10.47;2.73;;;;;;;24.34;52.91;101193.28;5112829;28;20181;-67
2021/08/03 02:41:50;;;;;;;12.47;3.20;;;;;;;24.32;52.85;101195.88;5111677;28;20178;-66
2021/08/03 02:44:18;;;;;;;4.37;2.10;;;;;;;24.29;52.63;101211.84;5112893;28;20270;-67
2021/08/03 02:46:47;;;;;;;5.07;2.30;;;;;;;24.23;52.67;101198.94;5110713;28;20656;-67
2021/08/03 02:49:16;;;;;;;5.83;2.10;;;;;;;24.27;52.63;101222.91;5112380;28;20174;-66
2021/08/03 02:51:42;;;;;;;7.10;2.40;;;;;;;24.21;52.88;101224.19;5111793;28;20189;-66
2021/08/03 02:54:17;;;;;;;8.13;2.00;;;;;;;24.20;53.37;101228.31;5112462;28;20688;-66
2021/08/03 02:56:45;;;;;;;8.40;2.50;;;;;;;24.18;53.09;101234.47;5110763;28;20173;-66
2021/08/03 02:59:13;;;;;;;8.47;2.93;;;;;;;24.05;53.86;101236.25;5111543;28;20182;-66
2021/08/03 03:01:41;;;;;;;7.93;2.60;;;;;;;23.98;53.67;101231.06;5111765;28;20260;-66
2021/08/03 03:04:15;;;;;;;8.93;2.60;;;;;;;23.87;53.93;101237.44;5111475;28;20186;-66
2021/08/03 03:06:47;;;;;;;7.00;2.60;;;;;;;23.86;54.07;101235.13;5111745;28;20169;-66
2021/08/03 03:09:14;;;;;;;3.53;2.30;;;;;;;23.85;53.98;101236.41;5111083;28;20166;-66
2021/08/03 03:11:40;;;;;;;3.70;2.30;;;;;;;23.82;54.59;101237.41;5111902;28;20175;-66
2021/08/03 03:14:06;;;;;;;4.60;2.00;;;;;;;23.75;54.83;101244.34;5111283;28;20671;-66
2021/08/03 03:16:41;;;;;;;7.90;2.50;;;;;;;23.61;54.80;101248.16;5092461;28;20663;-66
2021/08/03 03:19:08;;;;;;;4.97;2.30;;;;;;;23.44;55.16;101250.09;5110962;28;20170;-66
2021/08/03 03:21:35;;;;;;;5.53;2.20;;;;;;;23.38;55.42;101240.81;5112047;28;20700;-66
2021/08/03 03:24:02;;;;;;;6.03;2.40;;;;;;;23.38;55.44;101257.03;5110681;28;20561;-66
2021/08/03 03:26:31;;;;;;;2.97;2.23;;;;;;;23.39;55.49;101255.75;5110026;28;20603;-66
2021/08/03 03:28:59;;;;;;;7.00;2.30;;;;;;;23.39;55.81;101267.06;5111443;28;20720;-66
2021/08/03 03:31:32;;;;;;;6.63;2.70;;;;;;;23.37;55.78;101259.06;5110062;28;20178;-66
2021/08/03 03:34:03;;;;;;;5.20;2.50;;;;;;;23.40;55.48;101255.25;5111707;28;20190;-66
2021/08/03 03:36:31;;;;;;;7.00;2.73;;;;;;;23.35;55.45;101258.03;5109924;28;20713;-66
2021/08/03 03:38:59;;;;;;;7.67;2.60;;;;;;;22.97;55.44;101202.75;5111162;28;20179;-66
2021/08/03 03:41:27;;;;;;;4.87;2.27;;;;;;;23.35;55.21;101260.84;5110972;28;20560;-66
2021/08/03 03:43:52;;;;;;;6.53;2.60;;;;;;;23.42;55.24;101260.38;5111299;28;20749;-67
2021/08/03 03:46:21;;;;;;;5.40;2.53;;;;;;;23.47;55.05;101263.25;5109837;28;20172;-66
2021/08/03 03:48:53;;;;;;;7.57;2.47;;;;;;;23.57;54.92;101260.97;5111234;28;20285;-66
2021/08/03 03:51:29;;;;;;;4.43;2.60;;;;;;;23.60;54.70;101263.56;5110351;28;20178;-66
2021/08/03 03:54:02;;;;;;;5.50;2.30;;;;;;;23.20;55.18;101220.66;5111063;28;20166;-66
2021/08/03 03:56:42;;;;;;;5.87;2.43;;;;;;;23.61;55.53;101279.28;5110416;28;20171;-66
2021/08/03 03:59:10;;;;;;;8.20;2.50;;;;;;;23.62;55.42;101280.81;5109727;28;20557;-66
2021/08/03 04:01:36;;;;;;;7.60;2.60;;;;;;;23.02;55.40;101187.88;5111264;28;20174;-66
2021/08/03 04:04:05;;;;;;;8.10;2.80;;;;;;;23.74;55.50;101281.66;5110248;28;20170;-66
2021/08/03 04:06:32;;;;;;;7.43;2.90;;;;;;;23.65;55.58;101270.53;5110177;28;20229;-66
2021/08/03 04:08:58;;;;;;;9.00;2.37;;;;;;;23.87;55.29;101290.44;5109815;28;20701;-66
2021/08/03 04:11:24;;;;;;;7.47;2.60;;;;;;;23.74;55.42;101267.50;5111121;28;20171;-66
2021/08/03 04:13:51;;;;;;;9.43;3.13;;;;;;;23.91;55.46;101291.78;5110101;28;20178;-66
2021/08/03 04:16:17;;;;;;;7.10;2.93;;;;;;;23.97;55.38;101295.41;5109279;28;20262;-66
2021/08/03 04:18:43;;;;;;;6.60;2.37;;;;;;;24.08;55.48;101297.50;5110782;28;20287;-66
2021/08/03 04:21:08;;;;;;;4.13;2.10;;;;;;;24.13;55.51;101297.53;5106014;28;20199;-66
2021/08/03 04:23:34;;;;;;;5.80;2.43;;;;;;;24.18;55.32;101298.81;5097566;28;20189;-65
2021/08/03 04:25:59;;;;;;;6.60;2.57;;;;;;;24.23;55.21;101301.69;5095015;28;20283;-65
2021/08/03 04:28:25;;;;;;;7.33;2.20;;;;;;;24.30;54.91;101304.00;5094498;28;20202;-65
2021/08/03 04:30:50;;;;;;;7.60;2.30;;;;;;;24.35;54.64;101303.25;5111863;28;20181;-65
2021/08/03 04:33:16;;;;;;;5.00;2.70;;;;;;;24.41;54.76;101306.13;5110279;28;20170;-65
2021/08/03 04:35:42;;;;;;;6.33;2.73;;;;;;;24.47;54.79;101301.22;5111637;28;20683;-65
2021/08/03 04:38:07;;;;;;;5.20;2.70;;;;;;;24.44;54.94;101297.34;5128780;28;20184;-65
2021/08/03 04:40:33;;;;;;;5.73;2.70;;;;;;;24.51;55.00;101304.59;5093637;28;20185;-65
2021/08/03 04:42:59;;;;;;;5.63;2.23;;;;;;;24.49;54.79;101296.59;5131531;27;20217;-65
2021/08/03 04:45:24;;;;;;;6.50;2.60;;;;;;;24.41;55.32;101297.63;5114259;27;20243;-65
2021/08/03 04:47:51;;;;;;;4.47;2.47;;;;;;;24.50;55.28;101303.03;5113105;28;20281;-65
2021/08/03 04:50:20;;;;;;;5.83;2.63;;;;;;;24.49;55.30;101313.59;5114409;28;20166;-64
2021/08/03 04:52:45;;;;;;;6.70;2.67;;;;;;;24.57;55.33;101311.03;5113830;28;20182;-65
2021/08/03 04:55:12;;;;;;;4.53;2.67;;;;;;;24.59;55.47;101305.66;5113914;28;20236;-65
2021/08/03 04:57:38;;;;;;;5.90;2.23;;;;;;;24.58;55.55;101313.41;5112913;28;20167;-65
2021/08/03 05:00:06;;;;;;;4.33;2.40;;;;;;;24.61;55.17;101318.00;5104519;27;21916;-65
2021/08/03 05:02:32;;;;;;;6.20;2.63;;;;;;;24.65;55.26;101323.44;5087090;28;20228;-60
2021/08/03 05:04:57;;;;;;;8.93;2.40;;;;;;;24.69;55.07;101316.25;5114423;27;20720;-59
2021/08/03 05:07:22;;;;;;;3.87;2.20;;;;;;;24.56;55.10;101292.50;5110605;28;20198;-60
2021/08/03 05:09:48;;;;;;;4.37;2.40;;;;;;;24.57;55.01;101265.69;5094511;28;20731;-59
2021/08/03 05:12:14;;;;;;;5.03;2.57;;;;;;;24.93;55.02;101318.56;5094081;28;20189;-59
2021/08/03 05:14:39;;;;;;;7.90;2.37;;;;;;;25.01;55.14;101317.53;5109468;27;20173;-65
2021/08/03 05:17:05;;;;;;;5.20;2.47;;;;;;;25.04;54.82;101318.56;5112401;27;20251;-65
2021/08/03 05:19:30;;;;;;;4.27;2.50;;;;;;;25.14;54.78;101320.66;5111165;27;20186;-65
2021/08/03 05:21:55;;;;;;;5.97;2.43;;;;;;;25.17;54.17;101324.50;5111839;28;20189;-65
2021/08/03 05:24:25;;;;;;;3.37;2.17;;;;;;;25.07;54.07;101304.13;5111287;28;20668;-65
2021/08/03 05:26:52;;;;;;;5.00;2.20;;;;;;;25.23;53.46;101314.69;5109936;28;20186;-65
2021/08/03 05:29:18;;;;;;;2.93;1.90;;;;;;;25.27;52.69;101311.59;5110910;28;20207;-65
2021/08/03 05:31:43;;;;;;;5.27;2.20;;;;;;;25.35;52.45;101309.81;5111137;28;20631;-65
2021/08/03 05:34:09;;;;;;;4.80;2.40;;;;;;;25.43;52.90;101322.19;5110466;28;20659;-65
2021/08/03 05:36:34;;;;;;;4.47;2.20;;;;;;;25.50;52.44;101316.75;5110769;28;20178;-65
2021/08/03 05:39:00;;;;;;;4.40;2.20;;;;;;;25.57;52.10;101318.25;5110616;28;20202;-66
2021/08/03 05:41:25;;;;;;;5.17;1.97;;;;;;;25.58;52.06;101317.00;5109560;28;20320;-66
2021/08/03 05:43:51;;;;;;;6.00;2.20;;;;;;;25.68;51.72;101323.91;5105155;27;20221;-65
2021/08/03 05:46:17;;;;;;;6.80;2.20;;;;;;;25.75;51.39;101326.22;5111104;28;20271;-65
2021/08/03 05:48:43;;;;;;;5.43;2.23;;;;;;;25.94;51.59;101325.16;5106734;28;20562;-65
2021/08/03 05:51:08;;;;;;;3.10;2.10;;;;;;;25.75;51.04;101270.19;5107155;28;20182;-59
2021/08/03 05:53:34;;;;;;;3.40;1.97;;;;;;;26.07;50.79;101316.06;5091844;28;20242;-66
2021/08/03 05:56:00;;;;;;;4.47;2.00;;;;;;;26.13;50.48;101323.28;5111956;28;20174;-66
2021/08/03 05:58:26;;;;;;;7.20;2.10;;;;;;;26.27;50.38;101324.25;5107344;28;20443;-65
2021/08/03 06:00:51;;;;;;;4.43;1.90;;;;;;;26.34;49.90;101327.28;5110588;28;20185;-65
2021/08/03 06:03:17;;;;;;;4.97;2.20;;;;;;;26.39;49.35;101320.81;5111120;28;20269;-65
2021/08/03 06:05:42;;;;;;;4.60;2.23;;;;;;;26.55;49.65;101331.34;5110352;28;20182;-60
2021/08/03 06:08:11;;;;;;;4.70;2.20;;;;;;;26.63;49.29;101326.66;5093261;28;20210;-60
2021/08/03 06:10:37;;;;;;;10.53;2.50;;;;;;;26.70;48.50;101339.50;5110101;28;20320;-60
2021/08/03 06:13:04;;;;;;;3.83;1.93;;;;;;;26.76;47.99;101326.03;5111927;28;20231;-60
2021/08/03 06:15:37;;;;;;;3.37;1.80;;;;;;;26.76;47.89;101321.09;5093098;28;20209;-60
2021/08/03 06:18:10;;;;;;;4.50;2.10;;;;;;;26.89;48.09;101320.50;5091593;28;20217;-60
2021/08/03 06:20:36;;;;;;;3.17;2.10;;;;;;;27.03;48.30;101320.09;5071320;28;20182;-60
2021/08/03 06:23:02;;;;;;;5.53;2.27;;;;;;;27.14;47.81;101316.41;5086620;28;20554;-60
2021/08/03 06:25:28;;;;;;;4.30;1.83;;;;;;;26.83;46.91;101251.53;5110354;28;20246;-60
2021/08/03 06:27:54;;;;;;;3.40;1.93;;;;;;;27.23;46.78;101307.56;5110827;28;20202;-60
2021/08/03 06:30:21;;;;;;;4.70;1.80;;;;;;;27.37;47.32;101329.94;5105208;28;20174;-60
2021/08/03 06:32:48;;;;;;;4.43;2.10;;;;;;;27.49;47.21;101331.34;5109774;28;20186;-60
2021/08/03 06:35:15;;;;;;;5.27;2.03;;;;;;;27.53;46.12;101331.06;5108051;28;20734;-65
2021/08/03 06:37:40;;;;;;;4.93;2.30;;;;;;;27.64;45.75;101328.09;5107575;28;20198;-65
2021/08/03 06:40:09;;;;;;;4.90;2.10;;;;;;;27.73;45.21;101334.22;5110170;28;20229;-60
2021/08/03 06:42:44;;;;;;;5.40;2.00;;;;;;;27.77;44.20;101326.13;5110448;28;20722;-60
2021/08/03 06:45:13;;;;;;;4.15;2.03;;;;;;;27.94;45.02;101340.22;5111015;28;20432;-65
2021/08/03 06:47:47;;;;;;;3.72;1.77;;;;;;;28.04;44.70;101332.84;5106175;28;20198;-65
2021/08/03 06:50:14;;;;;;;3.80;2.10;;;;;;;27.66;44.03;101254.31;5110114;28;20169;-60
2021/08/03 06:52:40;;;;;;;2.85;1.83;;;;;;;28.31;43.96;101332.47;5092828;28;20297;-65
2021/08/03 06:55:07;;;;;;;3.83;2.10;;;;;;;28.35;43.67;101344.34;5106281;28;20202;-65
2021/08/03 06:57:35;;;;;;;3.13;1.80;;;;;;;28.39;42.88;101342.00;5109748;28;20174;-65
2021/08/03 07:00:07;;;;;;;4.45;1.80;;;;;;;28.47;43.29;101353.56;5109816;28;20178;-65
2021/08/03 07:02:40;;;;;;;5.68;2.05;;;;;;;28.52;41.63;101356.34;5110338;28;20173;-60
2021/08/03 07:05:16;;;;;;;4.53;2.03;;;;;;;28.43;41.10;101348.16;5110268;28;20178;-60
2021/08/03 07:07:43;;;;;;;4.28;2.00;;;;;;;28.50;41.45;101349.63;5109727;28;20186;-60
2021/08/03 07:10:09;;;;;;;3.60;1.95;;;;;;;28.24;40.56;101293.19;5110337;28;20178;-59
2021/08/03 07:12:35;;;;;;;5.30;2.00;;;;;;;28.61;41.60;101355.91;5108839;28;20181;-59
2021/08/03 07:15:02;;;;;;;2.97;1.75;;;;;;;28.69;40.89;101348.28;5109096;28;20182;-59
2021/08/03 07:17:29;;;;;;;2.97;1.85;;;;;;;28.74;41.13;101350.28;5108850;28;20167;-59
2021/08/03 07:19:58;;;;;;;5.97;2.13;;;;;;;28.95;40.49;101353.34;5109302;28;20269;-59
2021/08/03 07:22:24;;;;;;;6.10;2.10;;;;;;;28.36;40.27;101256.75;5110481;28;20175;-60
2021/08/03 07:24:51;;;;;;;3.70;2.63;;;;;;;28.89;39.72;101333.47;5110091;28;20208;-60
2021/08/03 07:27:16;;;;;;;2.90;2.10;;;;;;;29.00;39.91;101350.44;5109578;28;20205;-66
2021/08/03 07:29:42;;;;;;;4.40;2.60;;;;;;;29.09;39.96;101358.59;5109469;28;20193;-66
2021/08/03 07:32:08;;;;;;;4.63;3.00;;;;;;;28.55;39.54;101255.44;5106986;28;20566;-65
2021/08/03 07:34:37;;;;;;;5.32;2.83;;;;;;;29.12;40.46;101348.16;5109501;28;20664;-66
2021/08/03 07:37:04;;;;;;;6.43;4.60;;;;;;;29.12;40.65;101340.38;5108682;28;20181;-66
2021/08/03 07:39:30;;;;;;;6.37;3.43;;;;;;;29.22;40.55;101335.78;5109230;28;20223;-65
2021/08/03 07:41:58;;;;;;;6.85;3.35;;;;;;;29.34;40.16;101324.94;5109433;28;20178;-66
2021/08/03 07:44:24;;;;;;;5.78;3.85;;;;;;;29.36;40.91;101303.09;5109294;28;20171;-66
2021/08/03 07:46:50;;;;;;;5.22;4.20;;;;;;;29.46;39.91;101329.91;5103909;27;20178;-66
2021/08/03 07:49:16;;;;;;;6.07;4.88;;;;;;;29.51;39.42;101329.03;5109118;28;20644;-66
2021/08/03 07:51:42;;;;;;;5.10;4.15;;;;;;;29.69;38.57;101322.47;5105130;28;20182;-66
2021/08/03 07:54:07;;;;;;;6.72;4.32;;;;;;;29.75;38.87;101322.38;5108822;28;20269;-66
2021/08/03 07:56:34;;;;;;;8.63;5.00;;;;;;;29.83;39.68;101329.72;5109270;28;20208;-66
2021/08/03 07:59:01;;;;;;;9.40;6.00;;;;;;;29.94;38.62;101320.94;5091488;28;20174;-66
2021/08/03 08:01:26;;;;;;;9.50;5.10;;;;;;;29.89;38.92;101323.91;5109549;28;20459;-66
2021/08/03 08:03:52;;;;;;;9.48;5.10;;;;;;;29.89;38.08;101298.19;5109026;28;20446;-66
2021/08/03 08:06:17;;;;;;;11.52;6.38;;;;;;;29.56;38.12;101233.16;5109918;28;20185;-65
2021/08/03 08:08:43;;;;;;;8.23;6.13;;;;;;;30.27;37.20;101322.34;5104707;28;20216;-66
2021/08/03 08:11:09;;;;;;;11.35;6.43;;;;;;;30.38;37.68;101319.22;5107845;28;20246;-66
2021/08/03 08:13:35;;;;;;;9.15;6.82;;;;;;;30.58;38.06;101316.44;5107609;28;20261;-60
2021/08/03 08:16:00;;;;;;;8.82;6.68;;;;;;;30.33;37.42;101297.25;5107689;28;20182;-60
2021/08/03 08:18:26;;;;;;;8.98;7.15;;;;;;;30.61;36.96;101323.13;5108982;28;20759;-60
2021/08/03 08:20:55;;;;;;;9.27;7.10;;;;;;;30.73;37.35;101322.34;5110158;28;20261;-60
2021/08/03 08:23:21;;;;;;;9.85;7.65;;;;;;;30.66;37.15;101314.44;5111209;28;20239;-67
2021/08/03 08:25:47;;;;;;;9.23;8.23;;;;;;;30.72;37.21;101309.38;5092335;28;20289;-59
2021/08/03 08:28:12;;;;;;;9.25;7.25;;;;;;;30.77;37.07;101311.31;5107993;28;20300;-60
2021/08/03 08:30:39;;;;;;;8.43;6.50;;;;;;;30.79;36.73;101314.38;5089045;28;20182;-59
2021/08/03 08:33:05;;;;;;;9.25;6.28;;;;;;;30.87;35.75;101317.31;5107050;28;20256;-60
2021/08/03 08:35:31;;;;;;;8.90;6.90;;;;;;;30.96;37.14;101320.47;5107969;28;20192;-60
2021/08/03 08:37:57;;;;;;;8.73;6.68;;;;;;;31.06;36.06;101320.75;5105989;28;20175;-60
2021/08/03 08:40:22;;;;;;;9.10;6.53;;;;;;;31.04;35.24;101321.31;5107518;28;20173;-60
2021/08/03 08:42:48;;;;;;;7.32;6.28;;;;;;;31.07;34.63;101328.78;5105882;27;20237;-60
2021/08/03 08:45:15;;;;;;;9.57;6.43;;;;;;;31.18;34.64;101319.13;5108952;28;20606;-60
2021/08/03 08:47:45;;;;;;;10.93;7.47;;;;;;;31.20;34.49;101325.09;5105267;28;20256;-60
2021/08/03 08:50:13;;;;;;;8.50;7.00;;;;;;;31.29;33.59;101325.38;5107962;28;20174;-60
2021/08/03 08:52:40;;;;;;;9.65;6.75;;;;;;;31.42;33.86;101333.13;5108757;28;20215;-60
2021/08/03 08:55:07;;;;;;;9.15;7.13;;;;;;;31.57;33.91;101316.06;5107948;28;20250;-60
2021/08/03 08:57:33;;;;;;;8.32;7.05;;;;;;;31.73;35.49;101326.28;5107832;28;20323;-60
2021/08/03 08:59:58;;;;;;;10.70;6.20;;;;;;;31.70;33.43;101322.44;5105657;28;20272;-60
2021/08/03 09:02:38;;;;;;;8.27;6.30;;;;;;;31.78;33.56;101316.78;5108482;28;20181;-60
2021/08/03 09:05:04;;;;;;;8.25;6.30;;;;;;;31.45;33.70;101246.81;5107895;28;20185;-59
2021/08/03 09:07:30;;;;;;;8.15;6.25;;;;;;;31.84;31.94;101318.13;5108069;28;20207;-60
2021/08/03 09:09:56;;;;;;;7.50;6.50;;;;;;;31.91;33.13;101302.31;5108507;28;20212;-60
2021/08/03 09:12:33;;;;;;;6.78;5.43;;;;;;;32.01;32.45;101304.09;5109096;28;20221;-60
2021/08/03 09:14:59;;;;;;;9.45;5.72;;;;;;;32.02;32.96;101294.16;5104669;28;20858;-60
2021/08/03 09:17:29;;;;;;;7.13;5.80;;;;;;;32.16;31.33;101289.06;5107873;28;20179;-60
2021/08/03 09:19:55;;;;;;;8.02;5.88;;;;;;;32.33;31.77;101287.25;5107546;28;20182;-60
2021/08/03 09:22:28;;;;;;;6.38;5.50;;;;;;;32.42;30.13;101289.56;5108304;28;20183;-59
2021/08/03 09:25:10;;;;;;;6.30;5.40;;;;;;;32.44;30.53;101283.25;5108474;28;20641;-60
2021/08/03 09:27:48;;;;;;;6.93;5.82;;;;;;;32.44;30.08;101292.63;5107448;28;20300;-60
2021/08/03 09:30:19;;;;;;;7.85;6.07;;;;;;;32.34;30.18;101291.63;5110904;28;20194;-59
2021/08/03 09:32:48;;;;;;;7.55;5.63;;;;;;;32.54;29.80;101290.75;5112263;28;20203;-60
2021/08/03 09:35:17;;;;;;;7.30;5.80;;;;;;;32.28;30.46;101238.63;5108027;28;20186;-60
2021/08/03 09:37:44;;;;;;;9.45;5.72;;;;;;;32.62;29.72;101299.38;5111833;28;20182;-60
2021/08/03 09:40:18;;;;;;;9.18;5.40;;;;;;;32.78;29.99;101303.81;5111731;28;20205;-60
2021/08/03 09:42:44;;;;;;;7.70;5.88;;;;;;;32.68;29.34;101277.00;5112463;28;20225;-60
2021/08/03 09:45:10;;;;;;;7.85;5.00;;;;;;;32.77;29.93;101297.34;5112123;28;20171;-60
2021/08/03 09:47:37;;;;;;;6.05;5.10;;;;;;;32.72;29.43;101255.19;5111964;28;20252;-59
2021/08/03 09:50:08;;;;;;;7.00;5.32;;;;;;;32.93;28.68;101296.00;5110832;28;20182;-60
2021/08/03 09:52:35;;;;;;;7.10;5.10;;;;;;;32.97;28.28;101273.41;5110951;28;20602;-60
2021/08/03 09:55:09;;;;;;;7.32;4.95;;;;;;;32.90;30.53;101282.78;5092657;28;20227;-60
2021/08/03 09:57:35;;;;;;;5.75;4.70;;;;;;;33.06;30.35;101272.09;5110993;28;20675;-60
2021/08/03 10:00:01;;;;;;;5.15;4.18;;;;;;;33.09;29.09;101265.19;5110455;28;20171;-60
2021/08/03 10:02:27;;;;;;;5.50;4.32;;;;;;;33.00;29.04;101275.13;5111791;28;20606;-60
2021/08/03 10:04:56;;;;;;;5.57;4.10;;;;;;;32.32;27.28;101150.13;5110421;28;20187;-60
2021/08/03 10:07:22;;;;;;;5.88;3.67;;;;;;;33.09;26.91;101265.94;5111412;28;20198;-60
2021/08/03 10:09:49;;;;;;;6.93;3.63;;;;;;;33.30;26.35;101272.28;5111394;28;20173;-60
2021/08/03 10:12:15;;;;;;;7.20;3.58;;;;;;;33.21;25.48;101251.97;5111995;28;20185;-60
2021/08/03 10:14:41;;;;;;;4.13;3.00;;;;;;;33.42;25.80;101256.16;5111713;28;20261;-60
2021/08/03 10:17:10;;;;;;;3.85;2.97;;;;;;;33.47;26.62;101265.94;5110054;28;20313;-60
2021/08/03 10:19:37;;;;;;;5.22;3.10;;;;;;;33.67;26.38;101251.31;5110617;28;20229;-60
2021/08/03 10:22:16;;;;;;;6.45;3.45;;;;;;;33.67;27.73;101254.19;5111079;28;20178;-60
2021/08/03 10:24:52;;;;;;;4.88;3.20;;;;;;;33.02;26.53;101168.31;5110873;28;20185;-60
2021/08/03 10:27:18;;;;;;;5.25;3.38;;;;;;;33.69;26.41;101247.88;5110159;28;20766;-60
2021/08/03 10:29:57;;;;;;;6.22;4.13;;;;;;;33.92;27.12;101257.97;5111122;28;20261;-60
2021/08/03 10:32:46;;;;;;;6.25;3.13;;;;;;;33.88;26.27;101257.59;5111405;28;20507;-60
2021/08/03 10:35:15;;;;;;;5.13;2.80;;;;;;;33.82;26.54;101242.69;5108706;28;20197;-60
2021/08/03 10:37:58;;;;;;;4.88;3.38;;;;;;;34.05;26.73;101252.00;5106542;28;20203;-60
2021/08/03 10:40:49;;;;;;;5.07;3.30;;;;;;;34.08;27.50;101245.06;5105934;28;20182;-60
2021/08/03 10:43:17;;;;;;;5.85;3.00;;;;;;;34.04;26.79;101246.81;5108998;28;20226;-60
2021/08/03 10:45:44;;;;;;;7.32;3.47;;;;;;;33.89;26.53;101252.63;5109814;28;20213;-60
2021/08/03 10:48:10;;;;;;;7.03;3.60;;;;;;;33.60;26.90;101248.47;5109296;28;20228;-60
2021/08/03 10:50:38;;;;;;;8.30;4.20;;;;;;;33.77;26.87;101240.75;5109708;28;20185;-60
2021/08/03 10:53:04;;;;;;;7.07;3.95;;;;;;;33.74;27.05;101238.28;5105931;28;20186;-60
2021/08/03 10:55:31;;;;;;;7.85;4.13;;;;;;;33.63;26.12;101230.06;5110409;28;20193;-60
2021/08/03 10:58:16;;;;;;;10.00;4.22;;;;;;;33.99;26.05;101234.16;5105848;28;20198;-60
2021/08/03 11:01:02;;;;;;;6.03;3.75;;;;;;;34.38;25.82;101236.28;5106723;28;20257;-60
2021/08/03 11:03:31;;;;;;;4.88;3.10;;;;;;;34.44;25.15;101233.19;5107618;28;20171;-60
2021/08/03 11:06:19;;;;;;;7.47;3.38;;;;;;;34.59;25.54;101233.06;5109900;28;20182;-60
2021/08/03 11:08:48;;;;;;;6.03;3.85;;;;;;;33.69;24.97;101153.03;5092500;28;20218;-60
2021/08/03 11:11:21;;;;;;;4.53;3.03;;;;;;;34.55;25.16;101224.84;5110197;28;20655;-61
2021/08/03 11:13:55;;;;;;;6.18;3.08;;;;;;;34.83;25.68;101220.84;5108402;28;20247;-60
2021/08/03 11:16:23;;;;;;;5.75;3.40;;;;;;;34.97;25.68;101217.06;5109474;28;20173;-60
2021/08/03 11:18:52;;;;;;;7.80;3.28;;;;;;;34.90;25.87;101205.63;5110026;28;20178;-60
2021/08/03 11:21:18;;;;;;;10.52;5.10;;;;;;;34.81;25.92;101214.91;5107922;28;20640;-60
2021/08/03 11:24:06;;;;;;;9.82;6.45;;;;;;;34.65;25.48;101217.09;5110265;28;20255;-61
2021/08/03 11:26:37;;;;;;;5.95;3.25;;;;;;;34.84;24.63;101202.97;5108903;28;20201;-60
2021/08/03 11:29:10;;;;;;;6.40;3.58;;;;;;;34.80;24.16;101214.13;5107820;28;20190;-60
2021/08/03 11:31:45;;;;;;;6.40;3.35;;;;;;;34.84;25.21;101214.50;5105212;28;20183;-60